sensor_id;sensor_type;location;lat;lon;timestamp;pressure;altitude;pressure_sealevel;temperature;humidity
72585;BME280;60618;40.084;32.908;2022-10-31T00:01:16;89814.56;;;8.20;42.75
72585;BME280;60618;40.084;32.908;2022-10-31T00:03:43;89810.53;;;8.25;42.58
72585;BME280;60618;40.084;32.908;2022-10-31T00:06:10;89821.88;;;8.25;42.80
72585;BME280;60618;40.084;32.908;2022-10-31T00:08:37;89814.78;;;8.32;42.80
72585;BME280;60618;40.084;32.908;2022-10-31T00:11:08;89814.50;;;8.30;42.84
72585;BME280;60618;40.084;32.908;2022-10-31T00:13:35;89814.84;;;8.22;43.45
72585;BME280;60618;40.084;32.908;2022-10-31T00:16:02;89809.53;;;8.22;43.61
72585;BME280;60618;40.084;32.908;2022-10-31T00:18:29;89807.78;;;8.19;43.82
72585;BME280;60618;40.084;32.908;2022-10-31T00:21:00;89801.00;;;7.67;44.75
72585;BME280;60618;40.084;32.908;2022-10-31T00:23:28;89804.00;;;7.32;46.11
72585;BME280;60618;40.084;32.908;2022-10-31T00:26:00;89800.47;;;7.08;46.07
72585;BME280;60618;40.084;32.908;2022-10-31T00:28:27;89799.44;;;7.15;45.53
72585;BME280;60618;40.084;32.908;2022-10-31T00:30:54;89800.47;;;7.26;45.35
72585;BME280;60618;40.084;32.908;2022-10-31T00:33:21;89798.53;;;7.36;45.05
72585;BME280;60618;40.084;32.908;2022-10-31T00:35:50;89798.25;;;7.34;44.88
72585;BME280;60618;40.084;32.908;2022-10-31T00:38:17;89796.94;;;7.48;44.49
72585;BME280;60618;40.084;32.908;2022-10-31T00:40:44;89792.66;;;7.50;44.72
72585;BME280;60618;40.084;32.908;2022-10-31T00:43:10;89789.41;;;7.55;44.63
72585;BME280;60618;40.084;32.908;2022-10-31T00:45:42;89788.06;;;7.60;44.59
72585;BME280;60618;40.084;32.908;2022-10-31T00:48:10;89785.41;;;7.60;44.56
72585;BME280;60618;40.084;32.908;2022-10-31T00:50:37;89789.72;;;7.48;44.84
72585;BME280;60618;40.084;32.908;2022-10-31T00:53:03;89783.69;;;7.48;44.66
72585;BME280;60618;40.084;32.908;2022-10-31T00:55:31;89788.09;;;7.42;46.03
72585;BME280;60618;40.084;32.908;2022-10-31T00:57:58;89790.94;;;7.01;47.07
72585;BME280;60618;40.084;32.908;2022-10-31T01:00:25;89785.16;;;6.57;47.73
72585;BME280;60618;40.084;32.908;2022-10-31T01:02:52;89777.09;;;6.70;46.61
72585;BME280;60618;40.084;32.908;2022-10-31T01:05:19;89783.28;;;6.85;46.71
72585;BME280;60618;40.084;32.908;2022-10-31T01:07:46;89782.69;;;6.99;46.01
72585;BME280;60618;40.084;32.908;2022-10-31T01:10:13;89780.03;;;7.08;45.48
72585;BME280;60618;40.084;32.908;2022-10-31T01:12:42;89784.13;;;7.09;45.43
72585;BME280;60618;40.084;32.908;2022-10-31T01:15:11;89785.91;;;7.22;45.40
72585;BME280;60618;40.084;32.908;2022-10-31T01:17:39;89785.75;;;7.16;45.93
72585;BME280;60618;40.084;32.908;2022-10-31T01:20:08;89779.16;;;7.21;45.81
72585;BME280;60618;40.084;32.908;2022-10-31T01:22:35;89781.63;;;7.24;45.93
72585;BME280;60618;40.084;32.908;2022-10-31T01:25:03;89785.94;;;6.94;47.05
72585;BME280;60618;40.084;32.908;2022-10-31T01:27:31;89788.56;;;6.67;47.42
72585;BME280;60618;40.084;32.908;2022-10-31T01:29:58;89775.91;;;6.71;47.48
72585;BME280;60618;40.084;32.908;2022-10-31T01:32:24;89780.88;;;6.50;48.33
72585;BME280;60618;40.084;32.908;2022-10-31T01:34:51;89777.97;;;6.67;47.43
72585;BME280;60618;40.084;32.908;2022-10-31T01:37:18;89780.91;;;6.78;47.01
72585;BME280;60618;40.084;32.908;2022-10-31T01:39:45;89781.19;;;6.80;47.28
72585;BME280;60618;40.084;32.908;2022-10-31T01:42:20;89792.25;;;6.78;47.12
72585;BME280;60618;40.084;32.908;2022-10-31T01:44:52;89787.97;;;6.72;47.63
72585;BME280;60618;40.084;32.908;2022-10-31T01:47:30;89787.34;;;6.49;49.19
72585;BME280;60618;40.084;32.908;2022-10-31T01:50:00;89788.94;;;6.38;48.78
72585;BME280;60618;40.084;32.908;2022-10-31T01:52:38;89784.72;;;6.00;50.23
72585;BME280;60618;40.084;32.908;2022-10-31T01:55:21;89776.00;;;5.90;49.83
72585;BME280;60618;40.084;32.908;2022-10-31T01:57:58;89780.75;;;5.74;50.19
72585;BME280;60618;40.084;32.908;2022-10-31T02:00:27;89782.84;;;5.48;51.90
72585;BME280;60618;40.084;32.908;2022-10-31T02:02:54;89780.16;;;5.69;50.09
72585;BME280;60618;40.084;32.908;2022-10-31T02:05:27;89783.69;;;5.66;50.04
72585;BME280;60618;40.084;32.908;2022-10-31T02:08:14;89780.31;;;5.97;49.21
72585;BME280;60618;40.084;32.908;2022-10-31T02:10:42;89788.38;;;5.93;49.53
72585;BME280;60618;40.084;32.908;2022-10-31T02:13:11;89787.00;;;5.89;49.63
72585;BME280;60618;40.084;32.908;2022-10-31T02:15:39;89790.81;;;5.88;49.70
72585;BME280;60618;40.084;32.908;2022-10-31T02:18:07;89787.53;;;6.06;48.69
72585;BME280;60618;40.084;32.908;2022-10-31T02:26:28;89792.00;;;6.36;48.03
72585;BME280;60618;40.084;32.908;2022-10-31T02:29:11;89787.91;;;6.35;47.76
72585;BME280;60618;40.084;32.908;2022-10-31T02:31:50;89787.06;;;6.47;47.73
72585;BME280;60618;40.084;32.908;2022-10-31T02:34:32;89784.47;;;6.16;49.65
72585;BME280;60618;40.084;32.908;2022-10-31T02:39:59;89779.03;;;5.80;50.31
72585;BME280;60618;40.084;32.908;2022-10-31T02:42:41;89776.41;;;5.49;51.32
72585;BME280;60618;40.084;32.908;2022-10-31T02:45:46;89782.22;;;5.12;51.90
72585;BME280;60618;40.084;32.908;2022-10-31T02:48:18;89775.56;;;5.08;51.91
72585;BME280;60618;40.084;32.908;2022-10-31T02:51:00;89772.50;;;5.31;50.54
72585;BME280;60618;40.084;32.908;2022-10-31T02:53:32;89783.63;;;5.57;49.96
72585;BME280;60618;40.084;32.908;2022-10-31T02:58:39;89777.97;;;5.68;49.97
72585;BME280;60618;40.084;32.908;2022-10-31T03:09:43;89777.56;;;5.79;48.93
72585;BME280;60618;40.084;32.908;2022-10-31T03:12:26;89777.59;;;5.88;49.35
72585;BME280;60618;40.084;32.908;2022-10-31T03:15:12;89781.53;;;5.83;50.03
72585;BME280;60618;40.084;32.908;2022-10-31T03:20:55;89771.94;;;5.98;49.57
72585;BME280;60618;40.084;32.908;2022-10-31T03:23:24;89774.84;;;5.91;50.01
72585;BME280;60618;40.084;32.908;2022-10-31T03:25:53;89778.44;;;6.07;48.79
72585;BME280;60618;40.084;32.908;2022-10-31T03:28:29;89779.28;;;5.94;50.00
72585;BME280;60618;40.084;32.908;2022-10-31T03:30:58;89773.00;;;5.79;50.81
72585;BME280;60618;40.084;32.908;2022-10-31T03:33:31;89782.13;;;5.78;50.64
72585;BME280;60618;40.084;32.908;2022-10-31T03:36:01;89781.97;;;5.82;50.27
72585;BME280;60618;40.084;32.908;2022-10-31T03:38:30;89781.59;;;5.92;49.75
72585;BME280;60618;40.084;32.908;2022-10-31T03:41:00;89780.31;;;5.97;49.70
72585;BME280;60618;40.084;32.908;2022-10-31T03:43:33;89787.22;;;6.04;49.32
72585;BME280;60618;40.084;32.908;2022-10-31T03:46:04;89786.34;;;6.07;49.16
72585;BME280;60618;40.084;32.908;2022-10-31T03:48:32;89781.06;;;6.07;49.34
72585;BME280;60618;40.084;32.908;2022-10-31T03:51:42;89783.44;;;6.14;49.61
72585;BME280;60618;40.084;32.908;2022-10-31T03:54:13;89786.38;;;6.16;49.35
72585;BME280;60618;40.084;32.908;2022-10-31T03:56:53;89793.69;;;6.03;50.07
72585;BME280;60618;40.084;32.908;2022-10-31T03:59:32;89791.38;;;5.52;51.77
72585;BME280;60618;40.084;32.908;2022-10-31T04:02:04;89785.44;;;5.69;50.37
72585;BME280;60618;40.084;32.908;2022-10-31T04:04:34;89795.97;;;5.91;49.96
72585;BME280;60618;40.084;32.908;2022-10-31T04:07:03;89794.88;;;5.80;51.06
72585;BME280;60618;40.084;32.908;2022-10-31T04:09:33;89811.72;;;5.73;50.99
72585;BME280;60618;40.084;32.908;2022-10-31T04:12:06;89800.41;;;5.94;49.96
72585;BME280;60618;40.084;32.908;2022-10-31T04:14:39;89800.13;;;6.02;49.28
72585;BME280;60618;40.084;32.908;2022-10-31T04:17:10;89795.75;;;6.08;49.27
72585;BME280;60618;40.084;32.908;2022-10-31T04:19:39;89801.22;;;6.13;49.12
72585;BME280;60618;40.084;32.908;2022-10-31T04:22:06;89801.94;;;6.14;49.67
72585;BME280;60618;40.084;32.908;2022-10-31T04:24:37;89805.03;;;6.12;50.23
72585;BME280;60618;40.084;32.908;2022-10-31T04:27:06;89803.44;;;6.15;50.54
72585;BME280;60618;40.084;32.908;2022-10-31T04:29:33;89809.72;;;6.58;51.44
72585;BME280;60618;40.084;32.908;2022-10-31T04:32:00;89805.78;;;7.08;50.29
72585;BME280;60618;40.084;32.908;2022-10-31T04:34:27;89814.06;;;7.80;49.67
72585;BME280;60618;40.084;32.908;2022-10-31T04:36:54;89817.53;;;8.13;47.83
72585;BME280;60618;40.084;32.908;2022-10-31T04:39:21;89811.31;;;8.16;46.10
72585;BME280;60618;40.084;32.908;2022-10-31T04:41:52;89818.44;;;8.01;46.43
72585;BME280;60618;40.084;32.908;2022-10-31T04:44:19;89816.00;;;7.70;45.79
72585;BME280;60618;40.084;32.908;2022-10-31T04:46:46;89818.81;;;7.76;47.73
72585;BME280;60618;40.084;32.908;2022-10-31T04:49:13;89814.44;;;8.06;46.05
72585;BME280;60618;40.084;32.908;2022-10-31T04:51:40;89818.16;;;7.99;46.69
72585;BME280;60618;40.084;32.908;2022-10-31T04:54:07;89825.75;;;8.15;46.58
72585;BME280;60618;40.084;32.908;2022-10-31T04:56:34;89828.75;;;7.99;47.21
72585;BME280;60618;40.084;32.908;2022-10-31T04:59:01;89838.22;;;7.91;47.29
72585;BME280;60618;40.084;32.908;2022-10-31T05:01:28;89839.41;;;7.72;47.86
72585;BME280;60618;40.084;32.908;2022-10-31T05:03:55;89840.50;;;7.65;48.09
72585;BME280;60618;40.084;32.908;2022-10-31T05:06:22;89836.03;;;7.71;47.97
72585;BME280;60618;40.084;32.908;2022-10-31T05:08:48;89834.84;;;7.81;47.81
72585;BME280;60618;40.084;32.908;2022-10-31T05:11:15;89843.84;;;7.75;48.31
72585;BME280;60618;40.084;32.908;2022-10-31T05:13:42;89846.38;;;7.60;47.84
72585;BME280;60618;40.084;32.908;2022-10-31T05:16:09;89842.69;;;7.57;47.87
72585;BME280;60618;40.084;32.908;2022-10-31T05:18:36;89841.50;;;7.67;48.00
72585;BME280;60618;40.084;32.908;2022-10-31T05:21:03;89847.66;;;7.92;47.82
72585;BME280;60618;40.084;32.908;2022-10-31T05:23:30;89839.94;;;8.12;46.95
72585;BME280;60618;40.084;32.908;2022-10-31T05:25:56;89849.28;;;8.32;46.74
72585;BME280;60618;40.084;32.908;2022-10-31T05:28:23;89850.72;;;8.51;46.28
72585;BME280;60618;40.084;32.908;2022-10-31T05:30:50;89844.31;;;8.67;46.13
72585;BME280;60618;40.084;32.908;2022-10-31T05:33:17;89855.31;;;8.74;46.27
72585;BME280;60618;40.084;32.908;2022-10-31T05:35:44;89857.25;;;8.74;45.78
72585;BME280;60618;40.084;32.908;2022-10-31T05:38:10;89853.50;;;8.57;45.90
72585;BME280;60618;40.084;32.908;2022-10-31T05:40:37;89866.16;;;8.10;46.79
72585;BME280;60618;40.084;32.908;2022-10-31T05:43:04;89879.63;;;7.88;47.01
72585;BME280;60618;40.084;32.908;2022-10-31T05:45:31;89874.50;;;7.66;48.13
72585;BME280;60618;40.084;32.908;2022-10-31T05:47:59;89861.81;;;7.80;47.29
72585;BME280;60618;40.084;32.908;2022-10-31T05:50:28;89872.38;;;7.98;47.11
72585;BME280;60618;40.084;32.908;2022-10-31T05:52:57;89870.28;;;8.11;47.25
72585;BME280;60618;40.084;32.908;2022-10-31T05:55:25;89877.66;;;8.07;47.06
72585;BME280;60618;40.084;32.908;2022-10-31T05:57:53;89874.75;;;7.96;46.94
72585;BME280;60618;40.084;32.908;2022-10-31T06:00:21;89877.94;;;8.18;47.51
72585;BME280;60618;40.084;32.908;2022-10-31T06:02:48;89865.50;;;8.34;46.50
72585;BME280;60618;40.084;32.908;2022-10-31T06:05:15;89874.03;;;8.47;46.67
72585;BME280;60618;40.084;32.908;2022-10-31T06:07:42;89869.19;;;8.45;46.76
72585;BME280;60618;40.084;32.908;2022-10-31T06:10:09;89874.63;;;8.33;45.30
72585;BME280;60618;40.084;32.908;2022-10-31T06:12:36;89865.56;;;8.15;46.35
72585;BME280;60618;40.084;32.908;2022-10-31T06:15:07;89873.16;;;8.41;46.17
72585;BME280;60618;40.084;32.908;2022-10-31T06:17:35;89873.72;;;8.54;46.25
72585;BME280;60618;40.084;32.908;2022-10-31T06:20:03;89878.72;;;8.52;45.79
72585;BME280;60618;40.084;32.908;2022-10-31T06:22:30;89872.19;;;8.62;45.21
72585;BME280;60618;40.084;32.908;2022-10-31T06:24:57;89869.22;;;8.69;45.67
72585;BME280;60618;40.084;32.908;2022-10-31T06:27:24;89874.16;;;8.52;45.83
72585;BME280;60618;40.084;32.908;2022-10-31T06:29:51;89869.44;;;8.57;45.92
72585;BME280;60618;40.084;32.908;2022-10-31T06:32:18;89874.19;;;8.43;45.78
72585;BME280;60618;40.084;32.908;2022-10-31T06:34:45;89876.00;;;8.37;46.47
72585;BME280;60618;40.084;32.908;2022-10-31T06:37:12;89873.16;;;8.32;46.77
72585;BME280;60618;40.084;32.908;2022-10-31T06:39:39;89878.03;;;8.33;45.69
72585;BME280;60618;40.084;32.908;2022-10-31T06:42:06;89880.28;;;8.68;45.52
72585;BME280;60618;40.084;32.908;2022-10-31T06:44:32;89879.75;;;8.88;44.72
72585;BME280;60618;40.084;32.908;2022-10-31T06:46:59;89878.28;;;8.87;44.59
72585;BME280;60618;40.084;32.908;2022-10-31T06:49:26;89874.50;;;9.02;44.78
72585;BME280;60618;40.084;32.908;2022-10-31T06:51:53;89876.72;;;9.43;44.26
72585;BME280;60618;40.084;32.908;2022-10-31T06:54:20;89870.47;;;9.55;43.84
72585;BME280;60618;40.084;32.908;2022-10-31T06:56:47;89871.41;;;9.81;42.99
72585;BME280;60618;40.084;32.908;2022-10-31T06:59:15;89876.56;;;10.00;43.05
72585;BME280;60618;40.084;32.908;2022-10-31T07:01:42;89869.69;;;10.08;43.52
72585;BME280;60618;40.084;32.908;2022-10-31T07:04:10;89861.56;;;10.26;42.97
72585;BME280;60618;40.084;32.908;2022-10-31T07:06:37;89859.69;;;10.32;42.96
72585;BME280;60618;40.084;32.908;2022-10-31T07:09:04;89869.31;;;10.15;43.57
72585;BME280;60618;40.084;32.908;2022-10-31T07:11:31;89869.22;;;10.09;42.17
72585;BME280;60618;40.084;32.908;2022-10-31T07:13:58;89871.06;;;10.18;43.08
72585;BME280;60618;40.084;32.908;2022-10-31T07:16:25;89864.56;;;10.19;42.20
72585;BME280;60618;40.084;32.908;2022-10-31T07:18:51;89861.72;;;10.37;41.99
72585;BME280;60618;40.084;32.908;2022-10-31T07:21:18;89868.19;;;10.80;42.51
72585;BME280;60618;40.084;32.908;2022-10-31T07:23:48;89860.84;;;10.96;41.10
72585;BME280;60618;40.084;32.908;2022-10-31T07:26:15;89865.34;;;11.04;41.59
72585;BME280;60618;40.084;32.908;2022-10-31T07:28:42;89859.50;;;11.21;41.57
72585;BME280;60618;40.084;32.908;2022-10-31T07:31:09;89856.69;;;10.89;40.87
72585;BME280;60618;40.084;32.908;2022-10-31T07:33:35;89851.88;;;10.93;41.67
72585;BME280;60618;40.084;32.908;2022-10-31T07:36:02;89849.19;;;10.73;41.85
72585;BME280;60618;40.084;32.908;2022-10-31T07:38:29;89848.63;;;11.04;41.94
72585;BME280;60618;40.084;32.908;2022-10-31T07:40:56;89846.56;;;11.14;41.36
72585;BME280;60618;40.084;32.908;2022-10-31T07:43:23;89838.84;;;11.16;40.50
72585;BME280;60618;40.084;32.908;2022-10-31T07:45:53;89837.25;;;11.24;41.11
72585;BME280;60618;40.084;32.908;2022-10-31T07:48:20;89840.31;;;11.37;40.81
72585;BME280;60618;40.084;32.908;2022-10-31T07:50:47;89846.22;;;11.47;40.92
72585;BME280;60618;40.084;32.908;2022-10-31T07:53:14;89839.81;;;11.59;40.46
72585;BME280;60618;40.084;32.908;2022-10-31T07:55:42;89844.31;;;11.93;39.94
72585;BME280;60618;40.084;32.908;2022-10-31T07:58:11;89846.50;;;12.21;39.89
72585;BME280;60618;40.084;32.908;2022-10-31T08:00:40;89840.28;;;12.30;39.80
72585;BME280;60618;40.084;32.908;2022-10-31T08:03:10;89843.72;;;12.04;39.65
72585;BME280;60618;40.084;32.908;2022-10-31T08:05:37;89847.28;;;12.27;39.51
72585;BME280;60618;40.084;32.908;2022-10-31T08:08:05;89836.66;;;12.64;38.82
72585;BME280;60618;40.084;32.908;2022-10-31T08:10:32;89834.41;;;12.57;38.41
72585;BME280;60618;40.084;32.908;2022-10-31T08:13:02;89840.28;;;12.61;38.86
72585;BME280;60618;40.084;32.908;2022-10-31T08:15:29;89839.69;;;12.83;39.02
72585;BME280;60618;40.084;32.908;2022-10-31T08:17:56;89831.59;;;13.09;38.69
72585;BME280;60618;40.084;32.908;2022-10-31T08:20:24;89835.28;;;13.17;38.32
72585;BME280;60618;40.084;32.908;2022-10-31T08:23:11;89838.19;;;13.14;38.91
72585;BME280;60618;40.084;32.908;2022-10-31T08:25:38;89838.22;;;13.19;38.54
72585;BME280;60618;40.084;32.908;2022-10-31T08:28:06;89834.78;;;13.13;38.34
72585;BME280;60618;40.084;32.908;2022-10-31T08:30:35;89835.81;;;13.21;38.67
72585;BME280;60618;40.084;32.908;2022-10-31T08:33:05;89831.78;;;13.43;38.23
72585;BME280;60618;40.084;32.908;2022-10-31T08:35:33;89829.59;;;13.47;38.60
72585;BME280;60618;40.084;32.908;2022-10-31T08:38:00;89822.88;;;13.68;39.02
72585;BME280;60618;40.084;32.908;2022-10-31T08:40:30;89827.53;;;13.84;37.78
72585;BME280;60618;40.084;32.908;2022-10-31T08:43:11;89821.25;;;14.10;37.47
72585;BME280;60618;40.084;32.908;2022-10-31T08:45:39;89815.41;;;14.06;36.94
72585;BME280;60618;40.084;32.908;2022-10-31T08:48:10;89821.50;;;14.17;36.51
72585;BME280;60618;40.084;32.908;2022-10-31T08:50:37;89812.25;;;14.18;36.03
72585;BME280;60618;40.084;32.908;2022-10-31T08:53:06;89812.03;;;14.33;35.51
72585;BME280;60618;40.084;32.908;2022-10-31T08:55:34;89808.38;;;14.42;35.64
72585;BME280;60618;40.084;32.908;2022-10-31T08:58:02;89814.72;;;14.72;35.63
72585;BME280;60618;40.084;32.908;2022-10-31T09:00:30;89811.56;;;14.68;35.33
72585;BME280;60618;40.084;32.908;2022-10-31T09:02:57;89811.56;;;14.74;34.91
72585;BME280;60618;40.084;32.908;2022-10-31T09:05:25;89810.59;;;14.66;35.74
72585;BME280;60618;40.084;32.908;2022-10-31T09:07:56;89812.03;;;14.78;35.28
72585;BME280;60618;40.084;32.908;2022-10-31T09:10:25;89810.09;;;14.56;35.82
72585;BME280;60618;40.084;32.908;2022-10-31T09:13:00;89812.25;;;14.91;35.00
72585;BME280;60618;40.084;32.908;2022-10-31T09:15:28;89805.88;;;15.11;34.55
72585;BME280;60618;40.084;32.908;2022-10-31T09:17:55;89803.47;;;15.02;33.78
72585;BME280;60618;40.084;32.908;2022-10-31T09:20:21;89801.75;;;15.04;34.94
72585;BME280;60618;40.084;32.908;2022-10-31T09:22:55;89798.31;;;15.10;34.95
72585;BME280;60618;40.084;32.908;2022-10-31T09:25:23;89808.53;;;15.22;34.34
72585;BME280;60618;40.084;32.908;2022-10-31T09:27:49;89798.69;;;15.47;33.85
72585;BME280;60618;40.084;32.908;2022-10-31T09:30:17;89801.75;;;15.79;33.42
72585;BME280;60618;40.084;32.908;2022-10-31T09:32:44;89805.00;;;15.61;33.35
72585;BME280;60618;40.084;32.908;2022-10-31T09:35:10;89792.38;;;15.39;33.31
72585;BME280;60618;40.084;32.908;2022-10-31T09:37:42;89789.34;;;15.59;33.18
72585;BME280;60618;40.084;32.908;2022-10-31T09:40:09;89797.16;;;15.69;32.89
72585;BME280;60618;40.084;32.908;2022-10-31T09:50:56;89790.34;;;15.56;32.70
72585;BME280;60618;40.084;32.908;2022-10-31T09:53:45;89793.75;;;15.68;32.86
72585;BME280;60618;40.084;32.908;2022-10-31T09:56:15;89781.13;;;15.46;32.72
72585;BME280;60618;40.084;32.908;2022-10-31T09:58:50;89787.66;;;15.62;32.45
72585;BME280;60618;40.084;32.908;2022-10-31T10:01:34;89779.19;;;15.41;32.58
72585;BME280;60618;40.084;32.908;2022-10-31T10:06:47;89772.97;;;15.74;32.57
72585;BME280;60618;40.084;32.908;2022-10-31T10:09:21;89767.63;;;15.63;32.50
72585;BME280;60618;40.084;32.908;2022-10-31T10:18:17;89773.03;;;16.04;31.77
72585;BME280;60618;40.084;32.908;2022-10-31T10:23:29;89761.31;;;15.55;31.62
72585;BME280;60618;40.084;32.908;2022-10-31T10:26:21;89771.03;;;16.10;31.29
72585;BME280;60618;40.084;32.908;2022-10-31T10:28:59;89768.19;;;15.97;30.90
72585;BME280;60618;40.084;32.908;2022-10-31T10:31:32;89768.19;;;15.97;30.75
72585;BME280;60618;40.084;32.908;2022-10-31T10:34:21;89769.91;;;15.95;30.38
72585;BME280;60618;40.084;32.908;2022-10-31T10:36:54;89767.47;;;15.97;30.44
72585;BME280;60618;40.084;32.908;2022-10-31T10:39:27;89765.81;;;15.88;30.65
72585;BME280;60618;40.084;32.908;2022-10-31T10:41:57;89751.50;;;15.69;31.12
72585;BME280;60618;40.084;32.908;2022-10-31T10:44:25;89754.38;;;16.17;30.40
72585;BME280;60618;40.084;32.908;2022-10-31T10:46:56;89758.03;;;16.50;30.15
72585;BME280;60618;40.084;32.908;2022-10-31T10:57:58;89736.41;;;16.37;30.11
72585;BME280;60618;40.084;32.908;2022-10-31T11:00:31;89737.47;;;16.23;30.55
72585;BME280;60618;40.084;32.908;2022-10-31T11:02:58;89738.88;;;16.59;30.37
72585;BME280;60618;40.084;32.908;2022-10-31T11:05:36;89721.91;;;16.45;29.99
72585;BME280;60618;40.084;32.908;2022-10-31T11:08:05;89724.75;;;16.53;30.05
72585;BME280;60618;40.084;32.908;2022-10-31T11:10:32;89726.59;;;16.69;29.86
72585;BME280;60618;40.084;32.908;2022-10-31T11:15:32;89726.38;;;16.92;29.32
72585;BME280;60618;40.084;32.908;2022-10-31T11:18:01;89727.97;;;16.82;29.54
72585;BME280;60618;40.084;32.908;2022-10-31T11:23:14;89724.38;;;16.73;29.18
72585;BME280;60618;40.084;32.908;2022-10-31T11:25:52;89714.38;;;16.93;28.95
72585;BME280;60618;40.084;32.908;2022-10-31T11:28:20;89711.56;;;17.04;29.19
72585;BME280;60618;40.084;32.908;2022-10-31T11:30:51;89715.97;;;16.83;29.49
72585;BME280;60618;40.084;32.908;2022-10-31T11:33:38;89716.19;;;16.85;29.10
72585;BME280;60618;40.084;32.908;2022-10-31T11:36:16;89713.59;;;16.98;28.84
72585;BME280;60618;40.084;32.908;2022-10-31T11:38:45;89708.38;;;17.06;28.68
72585;BME280;60618;40.084;32.908;2022-10-31T11:41:38;89699.78;;;17.07;28.24
72585;BME280;60618;40.084;32.908;2022-10-31T11:44:14;89710.00;;;17.33;28.06
72585;BME280;60618;40.084;32.908;2022-10-31T11:46:49;89702.56;;;17.01;28.49
72585;BME280;60618;40.084;32.908;2022-10-31T11:49:27;89695.28;;;17.15;28.39
72585;BME280;60618;40.084;32.908;2022-10-31T11:51:57;89701.25;;;17.08;28.16
72585;BME280;60618;40.084;32.908;2022-10-31T11:54:29;89693.69;;;17.07;27.90
72585;BME280;60618;40.084;32.908;2022-10-31T11:56:56;89705.66;;;17.30;27.68
72585;BME280;60618;40.084;32.908;2022-10-31T11:59:25;89699.53;;;17.67;27.35
72585;BME280;60618;40.084;32.908;2022-10-31T12:01:53;89692.63;;;17.91;27.98
72585;BME280;60618;40.084;32.908;2022-10-31T12:07:01;89697.59;;;18.64;26.73
72585;BME280;60618;40.084;32.908;2022-10-31T12:09:30;89693.31;;;19.00;25.91
72585;BME280;60618;40.084;32.908;2022-10-31T12:17:24;89688.75;;;18.05;26.54
72585;BME280;60618;40.084;32.908;2022-10-31T12:37:04;89690.72;;;18.82;24.32
72585;BME280;60618;40.084;32.908;2022-10-31T12:39:44;89692.19;;;18.51;24.94
72585;BME280;60618;40.084;32.908;2022-10-31T12:42:41;89689.88;;;18.74;24.60
72585;BME280;60618;40.084;32.908;2022-10-31T12:48:06;89695.56;;;18.25;24.86
72585;BME280;60618;40.084;32.908;2022-10-31T12:59:07;89694.47;;;17.45;27.21
72585;BME280;60618;40.084;32.908;2022-10-31T13:01:40;89692.91;;;17.30;27.14
72585;BME280;60618;40.084;32.908;2022-10-31T13:04:30;89697.22;;;16.96;27.58
72585;BME280;60618;40.084;32.908;2022-10-31T13:07:05;89703.06;;;16.76;28.04
72585;BME280;60618;40.084;32.908;2022-10-31T13:09:45;89700.69;;;16.66;28.28
72585;BME280;60618;40.084;32.908;2022-10-31T13:12:17;89701.41;;;16.72;28.22
72585;BME280;60618;40.084;32.908;2022-10-31T13:14:55;89700.66;;;16.72;28.38
72585;BME280;60618;40.084;32.908;2022-10-31T13:17:31;89699.22;;;16.65;28.26
72585;BME280;60618;40.084;32.908;2022-10-31T13:22:41;89696.31;;;16.39;28.92
72585;BME280;60618;40.084;32.908;2022-10-31T13:30:53;89696.03;;;16.12;29.27
72585;BME280;60618;40.084;32.908;2022-10-31T13:33:27;89698.44;;;16.16;29.36
72585;BME280;60618;40.084;32.908;2022-10-31T13:36:39;89698.91;;;16.20;29.57
72585;BME280;60618;40.084;32.908;2022-10-31T13:38:53;89705.78;;;16.15;29.68
72585;BME280;60618;40.084;32.908;2022-10-31T13:41:51;89702.34;;;16.15;29.20
72585;BME280;60618;40.084;32.908;2022-10-31T13:44:23;89699.00;;;16.09;29.34
72585;BME280;60618;40.084;32.908;2022-10-31T13:46:52;89699.78;;;15.98;29.66
72585;BME280;60618;40.084;32.908;2022-10-31T14:00:22;89706.25;;;16.44;29.57
72585;BME280;60618;40.084;32.908;2022-10-31T14:02:52;89697.97;;;16.42;29.59
72585;BME280;60618;40.084;32.908;2022-10-31T14:07:46;89709.41;;;16.48;29.87
72585;BME280;60618;40.084;32.908;2022-10-31T14:10:30;89704.16;;;16.61;29.97
72585;BME280;60618;40.084;32.908;2022-10-31T14:13:21;89712.41;;;16.69;29.98
72585;BME280;60618;40.084;32.908;2022-10-31T14:15:58;89707.53;;;16.67;29.73
72585;BME280;60618;40.084;32.908;2022-10-31T14:18:38;89703.38;;;16.72;30.13
72585;BME280;60618;40.084;32.908;2022-10-31T14:23:51;89700.81;;;16.55;30.52
72585;BME280;60618;40.084;32.908;2022-10-31T14:28:52;89703.91;;;16.35;31.20
72585;BME280;60618;40.084;32.908;2022-10-31T14:31:39;89707.81;;;16.34;31.22
72585;BME280;60618;40.084;32.908;2022-10-31T14:53:26;89721.66;;;15.25;32.61
72585;BME280;60618;40.084;32.908;2022-10-31T14:55:56;89726.13;;;15.12;32.80
72585;BME280;60618;40.084;32.908;2022-10-31T14:58:37;89724.69;;;14.99;33.52
72585;BME280;60618;40.084;32.908;2022-10-31T15:01:05;89730.59;;;14.92;33.45
72585;BME280;60618;40.084;32.908;2022-10-31T15:03:38;89732.56;;;14.86;33.89
72585;BME280;60618;40.084;32.908;2022-10-31T15:06:20;89730.09;;;14.88;33.33
72585;BME280;60618;40.084;32.908;2022-10-31T15:08:50;89720.81;;;14.89;33.56
72585;BME280;60618;40.084;32.908;2022-10-31T15:13:58;89729.13;;;14.86;33.72
72585;BME280;60618;40.084;32.908;2022-10-31T15:16:35;89734.03;;;14.76;33.57
72585;BME280;60618;40.084;32.908;2022-10-31T15:19:05;89742.81;;;14.71;34.46
72585;BME280;60618;40.084;32.908;2022-10-31T15:21:33;89733.09;;;14.57;34.30
72585;BME280;60618;40.084;32.908;2022-10-31T15:24:01;89744.06;;;14.53;34.73
72585;BME280;60618;40.084;32.908;2022-10-31T15:26:37;89741.59;;;14.44;34.52
72585;BME280;60618;40.084;32.908;2022-10-31T15:29:11;89750.38;;;14.44;35.19
72585;BME280;60618;40.084;32.908;2022-10-31T15:31:56;89750.38;;;14.44;35.27
72585;BME280;60618;40.084;32.908;2022-10-31T15:34:38;89747.22;;;14.46;35.58
72585;BME280;60618;40.084;32.908;2022-10-31T15:37:13;89752.09;;;14.42;35.72